Time;durP1;ratioP1;P1;durP2;ratioP2;P2;SDS_P1;SDS_P2;PMS_P1;PMS_P2;Temp;Humidity;BMP_temperature;BMP_pressure;BME280_temperature;BME280_humidity;BME280_pressure;Samples;Min_cycle;Max_cycle;Signal;HPM_P1;HPM_P2
2022/11/22 00:04:03;;;;;;;4.97;2.85;;;;;;;19.64;50.27;95224.88;10419297;28;20080;-56
2022/11/22 00:09:23;;;;;;;3.72;2.80;;;;;;;19.63;50.21;95231.41;10414010;28;20049;-56
2022/11/22 00:14:42;;;;;;;3.92;2.83;;;;;;;19.61;50.20;95235.63;10432126;28;20044;-57
2022/11/22 00:20:02;;;;;;;5.18;2.60;;;;;;;19.60;50.17;95218.66;10417157;28;20515;-56
2022/11/22 00:25:22;;;;;;;4.38;2.78;;;;;;;19.58;50.17;95206.63;10431391;28;20045;-57
2022/11/22 00:30:41;;;;;;;3.78;2.40;;;;;;;19.56;49.95;95207.78;10431599;28;20045;-57
2022/11/22 00:36:00;;;;;;;4.55;2.80;;;;;;;19.54;49.92;95201.97;10417640;28;20045;-57
2022/11/22 00:41:19;;;;;;;3.65;2.55;;;;;;;19.53;49.89;95194.97;10385967;28;20050;-57
2022/11/22 00:46:39;;;;;;;3.78;2.78;;;;;;;19.52;49.89;95198.84;10375949;28;20548;-57
2022/11/22 00:51:58;;;;;;;3.10;2.58;;;;;;;19.50;49.86;95206.53;10389524;28;20049;-57
2022/11/22 00:57:17;;;;;;;3.45;2.80;;;;;;;19.50;49.72;95211.13;10375890;28;20065;-57
2022/11/22 01:02:37;;;;;;;3.42;2.33;;;;;;;19.47;49.75;95196.44;10375876;28;20054;-57
2022/11/22 01:07:56;;;;;;;3.55;2.47;;;;;;;19.46;49.81;95196.78;10375174;28;20096;-56
2022/11/22 01:13:15;;;;;;;3.05;2.20;;;;;;;19.44;49.62;95185.56;10416323;28;20061;-57
2022/11/22 01:18:35;;;;;;;3.03;2.33;;;;;;;19.43;49.71;95178.63;10416137;28;20045;-57
2022/11/22 01:23:55;;;;;;;2.75;2.22;;;;;;;19.41;49.58;95176.28;10415924;28;20481;-57
2022/11/22 01:29:14;;;;;;;3.95;2.60;;;;;;;19.40;49.64;95163.13;10428659;28;20048;-57
2022/11/22 01:34:33;;;;;;;3.25;2.22;;;;;;;19.39;49.54;95173.16;10417557;28;20100;-57
2022/11/22 01:39:52;;;;;;;3.58;2.30;;;;;;;19.39;49.47;95175.09;10387443;28;20042;-56
2022/11/22 01:45:30;;;;;;;2.65;1.98;;;;;;;19.36;49.37;95173.88;10387230;28;20050;-57
2022/11/22 01:50:54;;;;;;;3.13;2.40;;;;;;;19.34;49.58;95160.72;10374056;28;20057;-57
2022/11/22 01:56:16;;;;;;;5.32;2.63;;;;;;;19.34;49.58;95154.56;10372577;28;20307;-57
2022/11/22 02:01:35;;;;;;;3.08;2.40;;;;;;;19.32;49.39;95154.16;10374086;28;20072;-57
2022/11/22 02:07:11;;;;;;;2.95;2.20;;;;;;;19.30;49.42;95145.63;10373632;28;20072;-56
2022/11/22 02:12:32;;;;;;;2.88;2.20;;;;;;;19.29;49.28;95144.84;10390880;28;20054;-57
2022/11/22 02:17:51;;;;;;;2.83;2.25;;;;;;;19.28;49.38;95139.81;10414091;28;20057;-57
2022/11/22 02:23:20;;;;;;;2.17;1.90;;;;;;;19.26;49.24;95126.66;10414215;28;20068;-57
2022/11/22 02:28:39;;;;;;;3.03;2.13;;;;;;;19.25;49.26;95132.44;10412190;28;20485;-56
2022/11/22 02:33:59;;;;;;;2.90;2.10;;;;;;;19.23;49.26;95127.41;10378638;28;20050;-56
2022/11/22 02:39:28;;;;;;;2.45;1.85;;;;;;;19.23;49.24;95126.63;10373008;28;20053;-57
2022/11/22 02:44:47;;;;;;;2.78;1.90;;;;;;;19.20;49.22;95121.94;10358210;28;20077;-56
2022/11/22 02:50:07;;;;;;;2.85;1.92;;;;;;;19.18;49.27;95116.91;10372842;28;20445;-56
2022/11/22 02:55:26;;;;;;;2.15;1.90;;;;;;;19.17;49.15;95118.84;10372363;28;20070;-57
2022/11/22 03:00:46;;;;;;;2.55;1.80;;;;;;;19.16;49.11;95127.28;10372484;28;20053;-56
2022/11/22 03:06:05;;;;;;;3.55;1.90;;;;;;;19.14;49.07;95129.56;10375787;28;20042;-56
2022/11/22 03:11:25;;;;;;;2.40;1.95;;;;;;;19.13;49.24;95133.41;10408463;28;20050;-57
2022/11/22 03:16:45;;;;;;;1.95;1.75;;;;;;;19.12;49.10;95126.47;10420874;28;20053;-57
2022/11/22 03:22:05;;;;;;;3.30;1.80;;;;;;;19.09;49.01;95133.38;10420754;28;20413;-57
2022/11/22 03:27:24;;;;;;;2.85;2.05;;;;;;;19.09;49.19;95154.16;10409005;28;20096;-56
2022/11/22 03:32:43;;;;;;;2.55;1.83;;;;;;;19.08;49.03;95147.22;10379422;28;20065;-57
2022/11/22 03:38:03;;;;;;;2.08;1.70;;;;;;;19.06;49.03;95155.66;10379134;28;20058;-56
2022/11/22 03:43:22;;;;;;;2.17;1.73;;;;;;;19.05;49.16;95148.72;10378838;28;20057;-57
2022/11/22 03:48:42;;;;;;;2.15;1.70;;;;;;;19.03;49.15;95145.59;10378724;28;20042;-56
2022/11/22 03:54:01;;;;;;;2.13;1.80;;;;;;;19.03;49.00;95136.72;10378354;28;20058;-57
2022/11/22 03:59:20;;;;;;;2.03;1.60;;;;;;;19.01;48.94;95142.47;10377967;28;20058;-57
2022/11/22 04:04:40;;;;;;;1.92;1.52;;;;;;;18.99;49.02;95139.34;10377476;28;20046;-56
2022/11/22 04:09:59;;;;;;;1.55;1.45;;;;;;;18.99;49.07;95143.97;10394902;28;20050;-57
2022/11/22 04:15:18;;;;;;;2.20;1.60;;;;;;;18.97;49.10;95138.94;10418765;28;20057;-57
2022/11/22 04:26:16;;;;;;;2.03;1.70;;;;;;;18.94;49.17;95131.56;10385848;28;20054;-56
2022/11/22 04:37:13;;;;;;;1.70;1.52;;;;;;;18.91;48.94;95151.16;10396229;28;20049;-56
2022/11/22 04:48:11;;;;;;;2.17;1.60;;;;;;;18.90;49.07;95171.22;10417956;28;20053;-57
2022/11/22 04:53:31;;;;;;;1.70;1.60;;;;;;;18.88;49.01;95184.28;10430765;28;20041;-57
2022/11/22 04:58:50;;;;;;;1.50;1.40;;;;;;;18.87;49.00;95180.00;10416754;28;20053;-56
2022/11/22 05:04:10;;;;;;;1.77;1.55;;;;;;;18.84;49.04;95170.72;10416986;28;20049;-56
2022/11/22 05:09:29;;;;;;;2.03;1.48;;;;;;;18.84;49.12;95169.94;10415143;28;20493;-57
2022/11/22 05:14:48;;;;;;;1.75;1.55;;;;;;;18.84;49.35;95164.56;10416673;28;20057;-56
2022/11/22 05:20:08;;;;;;;1.70;1.50;;;;;;;18.83;49.43;95160.28;10403375;28;20058;-56
2022/11/22 05:25:27;;;;;;;1.65;1.50;;;;;;;18.81;49.46;95167.94;10405532;28;20394;-56
2022/11/22 05:30:47;;;;;;;1.77;1.50;;;;;;;18.82;49.82;95156.00;10411536;28;20457;-57
2022/11/22 05:36:07;;;;;;;1.30;1.20;;;;;;;18.83;49.76;95160.28;10382780;28;20038;-56
2022/11/22 05:41:27;;;;;;;2.22;1.80;;;;;;;18.83;49.75;95165.69;10404264;28;20108;-58
2022/11/22 05:46:46;;;;;;;1.75;1.38;;;;;;;18.82;49.75;95174.91;10428600;28;20049;-58
2022/11/22 05:52:07;;;;;;;2.22;1.55;;;;;;;18.84;49.48;95183.44;10401393;28;20049;-57
2022/11/22 05:57:27;;;;;;;1.92;1.40;;;;;;;18.86;49.68;95176.53;10384590;28;20058;-57
2022/11/22 06:02:46;;;;;;;1.90;1.45;;;;;;;18.84;49.57;95170.72;10374146;28;20077;-57
2022/11/22 06:08:05;;;;;;;3.40;1.85;;;;;;;18.89;49.90;95164.25;10382888;28;20046;-57
2022/11/22 06:13:25;;;;;;;6.25;2.22;;;;;;;18.88;49.94;95158.06;10414810;28;20115;-57
2022/11/22 06:18:45;;;;;;;4.88;2.67;;;;;;;18.90;49.75;95155.03;10381120;28;20058;-57
2022/11/22 06:24:05;;;;;;;6.47;2.50;;;;;;;18.91;49.70;95153.88;10373121;28;20058;-57
2022/11/22 06:29:25;;;;;;;9.27;2.80;;;;;;;18.92;49.79;95160.84;10370571;28;20057;-56
2022/11/22 06:34:45;;;;;;;8.25;2.97;;;;;;;18.94;49.96;95161.25;10369470;28;20085;-57
2022/11/22 06:40:06;;;;;;;9.40;3.05;;;;;;;18.96;49.91;95175.16;10371814;28;20050;-55
2022/11/22 06:45:25;;;;;;;6.43;2.90;;;;;;;18.96;49.93;95188.66;10378029;28;20053;-57
2022/11/22 06:50:44;;;;;;;7.15;2.80;;;;;;;18.98;49.86;95213.38;10380561;28;20058;-57
2022/11/22 06:56:06;;;;;;;8.20;2.90;;;;;;;19.00;49.67;95227.28;10389638;28;20054;-57
2022/11/22 07:01:27;;;;;;;7.22;3.08;;;;;;;19.01;49.78;95236.16;10379981;28;20536;-57
2022/11/22 07:06:46;;;;;;;5.47;2.83;;;;;;;19.03;50.04;95242.75;10393985;28;20406;-57
2022/11/22 07:12:06;;;;;;;9.55;3.10;;;;;;;19.05;49.98;95255.88;10399411;28;20057;-57
2022/11/22 07:17:25;;;;;;;6.57;3.10;;;;;;;19.07;49.96;95259.00;10379324;28;20050;-57
2022/11/22 07:22:46;;;;;;;9.68;3.50;;;;;;;19.09;49.97;95264.81;10393018;28;20049;-57
2022/11/22 07:28:05;;;;;;;10.35;3.20;;;;;;;19.11;49.83;95268.75;10379288;28;20593;-57
2022/11/22 07:33:25;;;;;;;8.13;3.28;;;;;;;19.13;50.01;95269.16;10379513;28;20057;-57
2022/11/22 07:38:46;;;;;;;7.05;3.50;;;;;;;19.13;49.98;95263.75;10379587;28;20096;-57
2022/11/22 07:44:05;;;;;;;5.88;2.78;;;;;;;19.17;49.95;95253.81;10379131;28;20054;-57
2022/11/22 07:49:25;;;;;;;7.88;3.08;;;;;;;19.19;49.85;95244.56;10378702;28;20069;-57
2022/11/22 07:54:44;;;;;;;7.03;3.10;;;;;;;19.20;49.96;95246.13;10378374;28;20057;-57
2022/11/22 08:00:04;;;;;;;9.00;3.35;;;;;;;19.24;50.06;95241.56;10378520;28;20053;-57
2022/11/22 08:05:24;;;;;;;9.48;3.33;;;;;;;19.26;49.90;95244.69;10363538;28;20065;-57
2022/11/22 08:10:44;;;;;;;8.60;3.58;;;;;;;19.28;49.77;95253.22;10400888;28;20054;-57
2022/11/22 08:16:08;;;;;;;7.10;3.50;;;;;;;19.30;49.79;95261.72;10418664;28;20053;-57
2022/11/22 08:21:28;;;;;;;5.75;2.90;;;;;;;19.32;49.76;95256.75;10418275;28;20054;-56
2022/11/22 08:26:48;;;;;;;6.57;2.97;;;;;;;19.34;49.67;95262.56;10418379;28;20053;-57
2022/11/22 08:32:07;;;;;;;5.50;2.90;;;;;;;19.35;49.72;95278.41;10418079;28;20409;-57
2022/11/22 08:37:26;;;;;;;5.88;2.83;;;;;;;19.38;49.68;95287.72;10417425;28;20053;-57
2022/11/22 08:42:45;;;;;;;5.13;3.08;;;;;;;19.39;49.49;95294.69;10430818;28;20048;-57
2022/11/22 08:48:05;;;;;;;5.75;2.92;;;;;;;19.42;49.57;95302.06;10430606;28;20447;-57
2022/11/22 08:53:25;;;;;;;6.32;3.10;;;;;;;19.43;49.60;95314.44;10417359;28;20385;-56
2022/11/22 08:58:44;;;;;;;4.80;2.75;;;;;;;19.44;49.44;95321.38;10415740;28;20057;-57
2022/11/22 09:04:04;;;;;;;6.47;2.70;;;;;;;19.49;49.37;95313.00;10412081;28;20053;-57
2022/11/22 09:09:23;;;;;;;5.13;2.83;;;;;;;19.49;48.97;95310.28;10387856;28;20045;-57
2022/11/22 09:14:42;;;;;;;4.57;2.47;;;;;;;19.52;48.98;95306.06;10415847;28;20057;-57
2022/11/22 09:20:03;;;;;;;5.32;2.38;;;;;;;19.53;48.88;95302.25;10415536;28;20548;-57
2022/11/22 09:25:22;;;;;;;5.63;2.60;;;;;;;19.54;49.10;95304.59;10415881;28;20057;-57
2022/11/22 09:30:41;;;;;;;4.22;2.17;;;;;;;19.58;48.89;95331.66;10414623;28;20497;-57
2022/11/22 09:36:06;;;;;;;6.10;2.65;;;;;;;19.59;48.74;95341.31;10396367;28;20053;-57
2022/11/22 09:41:45;;;;;;;4.93;2.58;;;;;;;19.60;48.56;95340.19;10428563;28;20052;-56
2022/11/22 09:47:30;;;;;;;4.95;2.58;;;;;;;19.63;48.84;95349.50;10428275;28;20041;-56
2022/11/22 09:52:54;;;;;;;4.70;2.40;;;;;;;19.65;49.01;95347.22;10405340;28;20064;-57
2022/11/22 09:58:23;;;;;;;4.40;2.30;;;;;;;19.67;49.05;95334.13;10403061;28;20057;-57
2022/11/22 10:04:01;;;;;;;3.70;2.10;;;;;;;19.69;49.07;95331.84;10384951;28;20049;-57
2022/11/22 10:09:33;;;;;;;4.25;2.22;;;;;;;19.70;49.06;95334.19;10385813;28;20049;-57
2022/11/22 10:15:30;;;;;;;3.85;2.30;;;;;;;19.72;48.97;95323.84;10413201;28;20057;-57
2022/11/22 10:20:49;;;;;;;4.88;2.50;;;;;;;19.75;49.01;95322.31;10414484;28;20057;-57
2022/11/22 10:26:31;;;;;;;3.97;2.00;;;;;;;19.76;49.02;95321.19;10413663;28;20055;-56
2022/11/22 10:32:12;;;;;;;3.55;2.10;;;;;;;19.78;48.94;95321.63;10399683;28;20061;-57
2022/11/22 10:37:41;;;;;;;5.15;2.15;;;;;;;19.81;49.04;95328.22;10414310;28;20103;-57
2022/11/22 10:43:04;;;;;;;;;;;;;;;19.81;48.96;95339.78;10427600;28;20099;-56
2022/11/22 10:48:31;;;;;;;3.60;2.03;;;;;;;19.83;48.80;95344.84;10414053;28;20331;-57
2022/11/22 10:54:12;;;;;;;4.32;2.28;;;;;;;19.85;48.95;95335.22;10413329;28;20054;-57
2022/11/22 10:59:53;;;;;;;3.08;2.20;;;;;;;19.86;48.91;95347.59;10385246;28;20112;-56
2022/11/22 11:05:17;;;;;;;3.00;2.13;;;;;;;19.88;49.06;95344.56;10372845;28;20056;-57
2022/11/22 11:10:39;;;;;;;3.40;1.92;;;;;;;19.89;48.93;95349.56;10380002;28;20120;-57
2022/11/22 11:16:00;;;;;;;2.83;1.92;;;;;;;19.92;48.85;95339.97;10413389;28;20099;-56
2022/11/22 11:21:20;;;;;;;2.72;1.88;;;;;;;19.95;49.09;95336.53;10411767;28;20061;-57
2022/11/22 11:26:41;;;;;;;2.50;1.80;;;;;;;19.95;48.96;95334.63;10415095;28;20536;-57
2022/11/22 11:32:31;;;;;;;2.95;1.80;;;;;;;19.97;48.99;95336.19;10420778;28;20053;-57
2022/11/22 11:37:51;;;;;;;3.00;2.00;;;;;;;19.99;49.04;95333.91;10393250;28;20053;-57
2022/11/22 11:43:19;;;;;;;4.00;2.00;;;;;;;20.01;48.69;95334.31;10419250;28;20104;-57
2022/11/22 11:48:40;;;;;;;3.10;1.80;;;;;;;20.02;48.75;95333.19;10433217;28;20390;-56
2022/11/22 11:54:08;;;;;;;3.10;2.20;;;;;;;20.03;48.89;95335.53;10414343;28;20046;-57
2022/11/22 11:59:48;;;;;;;2.90;1.80;;;;;;;20.05;48.80;95333.25;10377999;28;20061;-57
2022/11/22 12:05:11;;;;;;;2.88;1.80;;;;;;;20.07;48.77;95343.69;10391641;28;20042;-57
2022/11/22 12:10:56;;;;;;;2.85;1.80;;;;;;;20.07;48.62;95332.88;10399386;28;20058;-56
2022/11/22 12:16:29;;;;;;;2.45;1.80;;;;;;;20.08;48.65;95332.50;10404158;28;20077;-57
2022/11/22 12:22:12;;;;;;;2.22;1.60;;;;;;;20.11;48.58;95320.19;10418744;28;20064;-57
2022/11/22 12:27:31;;;;;;;2.08;1.65;;;;;;;20.12;48.54;95313.66;10403129;28;20492;-57
2022/11/22 12:33:00;;;;;;;2.80;1.83;;;;;;;20.14;48.61;95319.47;10418584;28;20053;-57
2022/11/22 12:38:23;;;;;;;3.00;1.52;;;;;;;20.14;48.69;95320.25;10402430;28;20107;-57
2022/11/22 12:43:46;;;;;;;2.30;1.92;;;;;;;20.16;48.57;95311.78;10402918;28;20053;-56
2022/11/22 12:49:12;;;;;;;1.98;1.70;;;;;;;20.19;48.54;95310.25;10413012;28;20050;-57
2022/11/22 12:54:36;;;;;;;2.17;1.60;;;;;;;20.20;48.39;95312.59;10376110;28;20054;-56
2022/11/22 13:00:11;;;;;;;2.00;1.60;;;;;;;20.22;48.53;95304.13;10376089;28;20173;-56
2022/11/22 13:05:45;;;;;;;2.78;1.67;;;;;;;20.22;48.38;95313.00;10361208;28;20057;-57
2022/11/22 13:11:15;;;;;;;2.50;1.60;;;;;;;20.23;48.23;95314.59;10401669;28;20057;-57
2022/11/22 13:16:35;;;;;;;2.22;1.70;;;;;;;20.26;48.36;95310.38;10401724;28;20056;-57
2022/11/22 13:22:25;;;;;;;2.42;1.90;;;;;;;20.27;48.44;95311.94;10415628;28;20493;-56
2022/11/22 13:27:47;;;;;;;1.83;1.67;;;;;;;20.31;48.13;95307.34;10415932;28;20436;-57
2022/11/22 13:33:22;;;;;;;2.67;1.80;;;;;;;20.31;48.22;95307.34;10415621;28;20058;-57
2022/11/22 13:38:42;;;;;;;2.38;1.50;;;;;;;20.30;48.10;95309.25;10415496;28;20049;-56
2022/11/22 13:44:20;;;;;;;1.65;1.38;;;;;;;20.32;48.09;95315.09;10415421;28;20057;-57
2022/11/22 13:49:44;;;;;;;1.65;1.55;;;;;;;20.34;48.03;95314.72;10375027;28;20080;-56
2022/11/22 13:55:28;;;;;;;1.60;1.40;;;;;;;20.33;47.99;95311.25;10373735;28;20057;-57
2022/11/22 14:00:49;;;;;;;1.40;1.30;;;;;;;20.34;47.97;95312.78;10373828;28;20050;-57
2022/11/22 14:06:24;;;;;;;3.08;1.50;;;;;;;20.36;47.95;95312.44;10386353;28;20104;-57
2022/11/22 14:12:12;;;;;;;2.13;1.40;;;;;;;20.40;48.14;95320.59;10389674;28;20057;-57
2022/11/22 14:17:49;;;;;;;2.10;1.50;;;;;;;20.40;48.08;95324.09;10413350;28;20059;-57
2022/11/22 14:23:24;;;;;;;2.83;1.67;;;;;;;20.40;48.15;95318.66;10399143;28;20064;-56
2022/11/22 14:29:20;;;;;;;1.80;1.48;;;;;;;20.42;48.24;95329.13;10426868;28;20408;-57
2022/11/22 14:35:02;;;;;;;2.10;1.33;;;;;;;20.42;48.06;95337.25;10414121;28;20119;-57
2022/11/22 14:40:29;;;;;;;2.55;1.45;;;;;;;20.42;46.71;95337.25;10409489;28;20081;-58
2022/11/22 14:45:52;;;;;;;2.30;2.03;;;;;;;20.36;43.60;95315.13;10382879;28;20069;-57
2022/11/22 14:51:32;;;;;;;4.15;2.10;;;;;;;20.40;45.73;95321.38;10386963;28;20050;-56
2022/11/22 14:56:52;;;;;;;4.95;1.88;;;;;;;20.41;46.07;95324.88;10372751;28;20406;-57
2022/11/22 15:02:37;;;;;;;2.35;1.90;;;;;;;20.41;46.11;95341.09;10375279;28;20046;-56
2022/11/22 15:08:13;;;;;;;6.13;2.00;;;;;;;20.42;46.16;95340.72;10365821;28;20050;-56
2022/11/22 15:13:51;;;;;;;2.88;1.67;;;;;;;20.43;46.42;95341.53;10420059;28;20061;-56
2022/11/22 15:19:30;;;;;;;3.17;2.00;;;;;;;20.42;46.13;95331.84;10394842;28;20559;-56
2022/11/22 15:24:51;;;;;;;;;;;;;;;20.43;46.35;95338.81;10379649;28;20057;-56
2022/11/22 15:30:16;;;;;;;6.70;2.05;;;;;;;20.42;46.54;95351.53;10376418;28;19929;-57
2022/11/22 15:35:50;;;;;;;3.42;1.70;;;;;;;20.44;46.87;95370.13;10364623;28;20382;-57
2022/11/22 15:41:15;;;;;;;2.28;1.83;;;;;;;20.45;47.14;95371.69;10363492;28;20061;-55
2022/11/22 15:46:36;;;;;;;4.50;1.70;;;;;;;20.46;46.82;95384.84;10375849;28;20037;-56
2022/11/22 15:51:57;;;;;;;1.90;1.60;;;;;;;20.48;46.92;95398.00;10388143;28;20045;-54
2022/11/22 15:57:28;;;;;;;2.88;1.80;;;;;;;20.48;46.75;95406.13;10361602;28;20062;-59
2022/11/22 16:02:51;;;;;;;2.78;1.60;;;;;;;20.49;47.26;95413.09;10378131;28;20050;-57
2022/11/22 16:08:12;;;;;;;2.83;1.73;;;;;;;20.49;47.51;95422.00;10365204;28;20076;-57
2022/11/22 16:13:34;;;;;;;4.07;1.77;;;;;;;20.51;47.28;95421.63;10430467;28;20038;-58
2022/11/22 22:40:07;;;;;;;13.15;6.93;;;;;;;19.91;50.90;95600.56;12782658;22;3958845;-92
2022/11/22 22:45:27;;;;;;;12.77;6.82;;;;;;;19.88;50.77;95591.28;12838974;23;20020;-90
2022/11/22 22:50:47;;;;;;;12.30;6.95;;;;;;;19.87;50.69;95602.44;12838467;23;20020;-90
2022/11/22 22:56:08;;;;;;;14.45;6.65;;;;;;;19.85;50.75;95602.00;12880086;23;20106;-90
2022/11/22 23:01:29;;;;;;;10.52;6.55;;;;;;;19.83;50.83;95602.34;12864169;23;20079;-91
2022/11/22 23:06:49;;;;;;;11.70;6.50;;;;;;;19.81;50.69;95603.84;12858269;23;20032;-89
2022/11/22 23:12:10;;;;;;;9.85;6.35;;;;;;;19.79;50.71;95611.53;12882770;23;20067;-90
2022/11/22 23:17:30;;;;;;;11.27;6.38;;;;;;;19.77;50.74;95611.88;12884229;23;20444;-90
2022/11/22 23:22:50;;;;;;;11.52;6.32;;;;;;;19.76;50.64;95613.03;12838006;23;20020;-91
2022/11/22 23:28:10;;;;;;;10.70;6.35;;;;;;;19.73;50.81;95606.41;12838231;23;20123;-90
2022/11/22 23:33:30;;;;;;;10.68;6.60;;;;;;;19.71;50.76;95600.56;12883743;23;20047;-90
2022/11/22 23:38:50;;;;;;;9.52;5.88;;;;;;;19.69;50.79;95608.22;12837141;23;20020;-91
2022/11/22 23:44:11;;;;;;;10.00;5.90;;;;;;;19.68;50.82;95601.25;12882758;23;20318;-90
2022/11/22 23:49:30;;;;;;;9.75;6.28;;;;;;;19.67;50.79;95598.91;12882659;23;20444;-89
2022/11/22 23:54:50;;;;;;;9.15;5.97;;;;;;;19.65;50.81;95606.56;12836664;23;20024;-90
